Overview Statistics Trail Chart Weather Telemetry Raw packets
 

This is the latest recevied weather packets stored in our database for station/object DD6UBW. If no packets are shown the sender has not sent any weather packets the latest 10 day(s).

<< 10 11 12 13 14 15 16 >>
Time Temp. Humidity Pressure Rain* Wind** Luminosity Snow
1788067801 18.89° C 73% 1009.6 hPa 0 mm - - -
1788066001 18.89° C 72% 1009.6 hPa 0 mm - - -
1788064201 18.89° C 73% 1009.6 hPa 0 mm - - -
1788062401 18.33° C 73% 1009.6 hPa 0 mm - - -
1788060601 18.33° C 73% 1009.6 hPa 0 mm - - -
1788058801 18.33° C 73% 1009.6 hPa 0 mm - - -
1788057000 18.89° C 70% 1010.6 hPa 0 mm - - -
1788055201 19.44° C 65% 1009.6 hPa 0 mm - - -
1788053405 18.89° C 65% 1009.6 hPa 0 mm - - -
1788051602 18.89° C 65% 1010.6 hPa 0 mm - - -
1788049801 19.44° C 64% 1010.6 hPa 0 mm - - -
1788048003 18.89° C 63% 1010.6 hPa 0 mm - - -
1788046202 19.44° C 63% 1010.6 hPa 0 mm - - -
1788044401 18.89° C 62% 1010.6 hPa 0 mm - - -
1788042602 19.44° C 61% 1010.6 hPa 0 mm - - -
1788040801 20° C 59% 1010.6 hPa 0 mm - - -
1788039001 20.56° C 57% 1010.6 hPa 0 mm - - -
1788037202 21.67° C 55% 1010.6 hPa 0 mm - - -
1788035401 21.67° C 54% 1010.6 hPa 0 mm - - -
1788033602 21.67° C 55% 1010.6 hPa 0 mm - - -
1788031802 21.11° C 56% 1010.6 hPa 0 mm - - -
1788030001 22.22° C 52% 1010.6 hPa 0 mm - - -
1788028200 22.78° C 50% 1010.6 hPa 0 mm - - -
1788024601 24.44° C 45% 1010.6 hPa 0 mm - - -
1788022802 24.44° C 44% 1010.6 hPa 0 mm - - -

* Rain since midnight (hover to see other rain measurements)
** Current wind speed in m/s (hover to see current wind gust speed)